sensor_id;sensor_type;location;lat;lon;timestamp;P1;durP1;ratioP1;P2;durP2;ratioP2
22024;SDS011;11176;51.448;6.650;2023-04-21T00:01:40;29.63;;;22.88;;
22024;SDS011;11176;51.448;6.650;2023-04-21T00:04:06;34.05;;;24.63;;
22024;SDS011;11176;51.448;6.650;2023-04-21T00:06:35;31.70;;;24.27;;
22024;SDS011;11176;51.448;6.650;2023-04-21T00:09:01;31.70;;;23.05;;
22024;SDS011;11176;51.448;6.650;2023-04-21T00:11:29;31.92;;;23.40;;
22024;SDS011;11176;51.448;6.650;2023-04-21T00:13:55;34.60;;;24.35;;
22024;SDS011;11176;51.448;6.650;2023-04-21T00:16:22;32.72;;;24.33;;
22024;SDS011;11176;51.448;6.650;2023-04-21T00:18:49;33.25;;;24.23;;
22024;SDS011;11176;51.448;6.650;2023-04-21T00:21:15;33.55;;;24.83;;
22024;SDS011;11176;51.448;6.650;2023-04-21T00:23:43;33.45;;;25.13;;
22024;SDS011;11176;51.448;6.650;2023-04-21T00:26:10;37.35;;;26.02;;
22024;SDS011;11176;51.448;6.650;2023-04-21T00:28:39;38.10;;;24.98;;
22024;SDS011;11176;51.448;6.650;2023-04-21T00:31:05;33.30;;;23.88;;
22024;SDS011;11176;51.448;6.650;2023-04-21T00:33:32;31.67;;;23.30;;
22024;SDS011;11176;51.448;6.650;2023-04-21T00:35:58;35.03;;;23.00;;
22024;SDS011;11176;51.448;6.650;2023-04-21T00:38:26;32.22;;;23.55;;
22024;SDS011;11176;51.448;6.650;2023-04-21T00:40:52;30.73;;;23.00;;
22024;SDS011;11176;51.448;6.650;2023-04-21T00:43:19;32.88;;;23.13;;
22024;SDS011;11176;51.448;6.650;2023-04-21T00:45:45;33.22;;;24.70;;
22024;SDS011;11176;51.448;6.650;2023-04-21T00:48:12;35.63;;;24.30;;
22024;SDS011;11176;51.448;6.650;2023-04-21T00:50:39;31.90;;;23.70;;
22024;SDS011;11176;51.448;6.650;2023-04-21T00:53:06;33.13;;;24.50;;
22024;SDS011;11176;51.448;6.650;2023-04-21T00:55:33;34.10;;;24.25;;
22024;SDS011;11176;51.448;6.650;2023-04-21T00:58:01;37.60;;;25.52;;
22024;SDS011;11176;51.448;6.650;2023-04-21T01:00:28;34.95;;;24.60;;
22024;SDS011;11176;51.448;6.650;2023-04-21T01:02:55;33.55;;;24.30;;
22024;SDS011;11176;51.448;6.650;2023-04-21T01:05:22;36.75;;;26.45;;
22024;SDS011;11176;51.448;6.650;2023-04-21T01:07:49;35.67;;;25.20;;
22024;SDS011;11176;51.448;6.650;2023-04-21T01:10:15;37.47;;;25.75;;
22024;SDS011;11176;51.448;6.650;2023-04-21T01:12:44;36.22;;;26.30;;
22024;SDS011;11176;51.448;6.650;2023-04-21T01:15:12;39.38;;;25.67;;
22024;SDS011;11176;51.448;6.650;2023-04-21T01:17:40;37.95;;;26.10;;
22024;SDS011;11176;51.448;6.650;2023-04-21T01:20:08;38.78;;;27.00;;
22024;SDS011;11176;51.448;6.650;2023-04-21T01:22:37;35.63;;;25.77;;
22024;SDS011;11176;51.448;6.650;2023-04-21T01:25:05;37.15;;;26.25;;
22024;SDS011;11176;51.448;6.650;2023-04-21T01:27:32;39.47;;;27.38;;
22024;SDS011;11176;51.448;6.650;2023-04-21T01:29:58;39.67;;;27.33;;
22024;SDS011;11176;51.448;6.650;2023-04-21T01:32:27;46.38;;;28.92;;
22024;SDS011;11176;51.448;6.650;2023-04-21T01:34:56;43.33;;;28.25;;
22024;SDS011;11176;51.448;6.650;2023-04-21T01:37:26;42.53;;;29.20;;
22024;SDS011;11176;51.448;6.650;2023-04-21T01:39:55;40.13;;;28.40;;
22024;SDS011;11176;51.448;6.650;2023-04-21T01:42:24;40.05;;;27.42;;
22024;SDS011;11176;51.448;6.650;2023-04-21T01:44:53;43.83;;;29.55;;
22024;SDS011;11176;51.448;6.650;2023-04-21T01:47:21;40.25;;;27.88;;
22024;SDS011;11176;51.448;6.650;2023-04-21T01:49:48;44.42;;;30.10;;
22024;SDS011;11176;51.448;6.650;2023-04-21T01:52:14;46.75;;;30.70;;
22024;SDS011;11176;51.448;6.650;2023-04-21T01:54:41;43.72;;;28.17;;
22024;SDS011;11176;51.448;6.650;2023-04-21T01:57:08;43.30;;;28.77;;
22024;SDS011;11176;51.448;6.650;2023-04-21T01:59:35;47.85;;;30.92;;
22024;SDS011;11176;51.448;6.650;2023-04-21T02:02:01;44.00;;;29.95;;
22024;SDS011;11176;51.448;6.650;2023-04-21T02:04:31;47.33;;;32.53;;
22024;SDS011;11176;51.448;6.650;2023-04-21T02:06:58;46.92;;;31.48;;
22024;SDS011;11176;51.448;6.650;2023-04-21T02:09:25;49.08;;;32.65;;
22024;SDS011;11176;51.448;6.650;2023-04-21T02:11:52;47.78;;;32.72;;
22024;SDS011;11176;51.448;6.650;2023-04-21T02:14:20;51.13;;;33.58;;
22024;SDS011;11176;51.448;6.650;2023-04-21T02:16:46;51.05;;;34.10;;
22024;SDS011;11176;51.448;6.650;2023-04-21T02:19:12;48.53;;;31.27;;
22024;SDS011;11176;51.448;6.650;2023-04-21T02:21:39;47.30;;;31.63;;
22024;SDS011;11176;51.448;6.650;2023-04-21T02:24:06;50.28;;;32.80;;
22024;SDS011;11176;51.448;6.650;2023-04-21T02:26:32;49.17;;;31.17;;
22024;SDS011;11176;51.448;6.650;2023-04-21T02:28:59;50.13;;;33.72;;
22024;SDS011;11176;51.448;6.650;2023-04-21T02:31:26;46.85;;;31.52;;
22024;SDS011;11176;51.448;6.650;2023-04-21T02:33:53;49.38;;;32.97;;
22024;SDS011;11176;51.448;6.650;2023-04-21T02:36:19;49.53;;;32.30;;
22024;SDS011;11176;51.448;6.650;2023-04-21T02:38:46;49.90;;;32.55;;
22024;SDS011;11176;51.448;6.650;2023-04-21T02:41:12;49.85;;;32.78;;
22024;SDS011;11176;51.448;6.650;2023-04-21T02:43:39;49.83;;;33.55;;
22024;SDS011;11176;51.448;6.650;2023-04-21T02:46:06;50.25;;;31.55;;
22024;SDS011;11176;51.448;6.650;2023-04-21T02:48:33;48.53;;;32.17;;
22024;SDS011;11176;51.448;6.650;2023-04-21T02:51:00;49.13;;;33.45;;
22024;SDS011;11176;51.448;6.650;2023-04-21T02:53:27;48.13;;;32.45;;
22024;SDS011;11176;51.448;6.650;2023-04-21T02:55:54;50.33;;;32.92;;
22024;SDS011;11176;51.448;6.650;2023-04-21T02:58:21;47.38;;;31.77;;
22024;SDS011;11176;51.448;6.650;2023-04-21T03:00:48;48.83;;;31.60;;
22024;SDS011;11176;51.448;6.650;2023-04-21T03:03:15;47.47;;;31.02;;
22024;SDS011;11176;51.448;6.650;2023-04-21T03:05:42;42.35;;;30.02;;
22024;SDS011;11176;51.448;6.650;2023-04-21T03:08:08;44.83;;;29.88;;
22024;SDS011;11176;51.448;6.650;2023-04-21T03:10:35;43.60;;;30.20;;
22024;SDS011;11176;51.448;6.650;2023-04-21T03:13:02;43.40;;;29.95;;
22024;SDS011;11176;51.448;6.650;2023-04-21T03:15:30;45.20;;;30.92;;
22024;SDS011;11176;51.448;6.650;2023-04-21T03:17:59;47.88;;;31.58;;
22024;SDS011;11176;51.448;6.650;2023-04-21T03:20:26;48.30;;;32.53;;
22024;SDS011;11176;51.448;6.650;2023-04-21T03:22:53;47.65;;;32.05;;
22024;SDS011;11176;51.448;6.650;2023-04-21T03:25:19;46.10;;;31.55;;
22024;SDS011;11176;51.448;6.650;2023-04-21T03:27:47;45.00;;;31.30;;
22024;SDS011;11176;51.448;6.650;2023-04-21T03:30:13;51.03;;;32.83;;
22024;SDS011;11176;51.448;6.650;2023-04-21T03:32:40;47.78;;;32.55;;
22024;SDS011;11176;51.448;6.650;2023-04-21T03:35:06;47.72;;;32.50;;
22024;SDS011;11176;51.448;6.650;2023-04-21T03:37:33;47.15;;;31.48;;
22024;SDS011;11176;51.448;6.650;2023-04-21T03:39:59;45.92;;;31.42;;
22024;SDS011;11176;51.448;6.650;2023-04-21T03:42:26;43.55;;;30.20;;
22024;SDS011;11176;51.448;6.650;2023-04-21T03:44:55;44.40;;;30.67;;
22024;SDS011;11176;51.448;6.650;2023-04-21T03:47:22;47.72;;;31.23;;
22024;SDS011;11176;51.448;6.650;2023-04-21T03:49:50;49.78;;;32.15;;
22024;SDS011;11176;51.448;6.650;2023-04-21T03:52:16;45.10;;;31.73;;
22024;SDS011;11176;51.448;6.650;2023-04-21T03:54:43;44.97;;;30.05;;
22024;SDS011;11176;51.448;6.650;2023-04-21T03:57:09;45.45;;;30.55;;
22024;SDS011;11176;51.448;6.650;2023-04-21T03:59:35;46.75;;;30.92;;
22024;SDS011;11176;51.448;6.650;2023-04-21T04:02:02;48.08;;;31.85;;
22024;SDS011;11176;51.448;6.650;2023-04-21T04:04:29;47.47;;;32.15;;
22024;SDS011;11176;51.448;6.650;2023-04-21T04:06:56;50.42;;;32.72;;
22024;SDS011;11176;51.448;6.650;2023-04-21T04:09:22;48.05;;;31.42;;
22024;SDS011;11176;51.448;6.650;2023-04-21T04:11:49;49.10;;;33.10;;
22024;SDS011;11176;51.448;6.650;2023-04-21T04:14:15;46.78;;;32.05;;
22024;SDS011;11176;51.448;6.650;2023-04-21T04:16:42;46.47;;;32.00;;
22024;SDS011;11176;51.448;6.650;2023-04-21T04:19:08;48.30;;;31.60;;
22024;SDS011;11176;51.448;6.650;2023-04-21T04:21:35;48.33;;;32.47;;
22024;SDS011;11176;51.448;6.650;2023-04-21T04:24:01;51.17;;;32.28;;
22024;SDS011;11176;51.448;6.650;2023-04-21T04:26:30;49.60;;;32.65;;
22024;SDS011;11176;51.448;6.650;2023-04-21T04:28:59;49.53;;;32.83;;
22024;SDS011;11176;51.448;6.650;2023-04-21T04:31:30;50.60;;;32.55;;
22024;SDS011;11176;51.448;6.650;2023-04-21T04:33:57;49.00;;;32.78;;
22024;SDS011;11176;51.448;6.650;2023-04-21T04:36:24;52.70;;;33.80;;
22024;SDS011;11176;51.448;6.650;2023-04-21T04:38:50;52.20;;;33.78;;
22024;SDS011;11176;51.448;6.650;2023-04-21T04:41:17;50.25;;;33.38;;
22024;SDS011;11176;51.448;6.650;2023-04-21T04:43:44;50.17;;;34.00;;
22024;SDS011;11176;51.448;6.650;2023-04-21T04:46:11;52.15;;;33.97;;
22024;SDS011;11176;51.448;6.650;2023-04-21T04:48:38;50.15;;;33.42;;
22024;SDS011;11176;51.448;6.650;2023-04-21T04:51:05;50.15;;;32.97;;
22024;SDS011;11176;51.448;6.650;2023-04-21T04:53:34;55.58;;;36.53;;
22024;SDS011;11176;51.448;6.650;2023-04-21T04:56:00;50.00;;;33.45;;
22024;SDS011;11176;51.448;6.650;2023-04-21T04:58:27;50.38;;;34.53;;
22024;SDS011;11176;51.448;6.650;2023-04-21T05:00:53;55.63;;;35.00;;
22024;SDS011;11176;51.448;6.650;2023-04-21T05:03:20;55.75;;;34.50;;
22024;SDS011;11176;51.448;6.650;2023-04-21T05:05:47;55.88;;;36.33;;
22024;SDS011;11176;51.448;6.650;2023-04-21T05:08:13;54.72;;;36.35;;
22024;SDS011;11176;51.448;6.650;2023-04-21T05:10:43;55.78;;;37.45;;
22024;SDS011;11176;51.448;6.650;2023-04-21T05:13:09;55.28;;;35.40;;
22024;SDS011;11176;51.448;6.650;2023-04-21T05:15:36;52.38;;;34.85;;
22024;SDS011;11176;51.448;6.650;2023-04-21T05:18:02;49.72;;;34.05;;
22024;SDS011;11176;51.448;6.650;2023-04-21T05:20:29;53.75;;;35.15;;
22024;SDS011;11176;51.448;6.650;2023-04-21T05:22:55;51.95;;;34.78;;
22024;SDS011;11176;51.448;6.650;2023-04-21T05:25:22;54.17;;;35.47;;
22024;SDS011;11176;51.448;6.650;2023-04-21T05:27:48;57.38;;;36.10;;
22024;SDS011;11176;51.448;6.650;2023-04-21T05:30:15;48.35;;;32.45;;
22024;SDS011;11176;51.448;6.650;2023-04-21T05:32:41;49.17;;;32.58;;
22024;SDS011;11176;51.448;6.650;2023-04-21T05:35:08;50.78;;;33.53;;
22024;SDS011;11176;51.448;6.650;2023-04-21T05:37:34;52.13;;;33.78;;
22024;SDS011;11176;51.448;6.650;2023-04-21T05:40:01;48.53;;;31.70;;
22024;SDS011;11176;51.448;6.650;2023-04-21T05:42:27;47.67;;;31.73;;
22024;SDS011;11176;51.448;6.650;2023-04-21T05:44:54;46.72;;;32.35;;
22024;SDS011;11176;51.448;6.650;2023-04-21T05:47:20;47.70;;;32.15;;
22024;SDS011;11176;51.448;6.650;2023-04-21T05:49:49;50.65;;;33.25;;
22024;SDS011;11176;51.448;6.650;2023-04-21T05:52:17;47.92;;;31.67;;
22024;SDS011;11176;51.448;6.650;2023-04-21T05:54:44;54.10;;;34.03;;
22024;SDS011;11176;51.448;6.650;2023-04-21T05:57:10;53.03;;;35.15;;
22024;SDS011;11176;51.448;6.650;2023-04-21T05:59:37;47.35;;;32.45;;
22024;SDS011;11176;51.448;6.650;2023-04-21T06:02:04;49.78;;;31.95;;
22024;SDS011;11176;51.448;6.650;2023-04-21T06:04:31;52.05;;;33.58;;
22024;SDS011;11176;51.448;6.650;2023-04-21T06:07:03;48.63;;;32.67;;
22024;SDS011;11176;51.448;6.650;2023-04-21T06:09:33;48.35;;;31.98;;
22024;SDS011;11176;51.448;6.650;2023-04-21T06:12:01;51.65;;;33.33;;
22024;SDS011;11176;51.448;6.650;2023-04-21T06:14:28;48.75;;;32.60;;
22024;SDS011;11176;51.448;6.650;2023-04-21T06:16:55;48.92;;;33.38;;
22024;SDS011;11176;51.448;6.650;2023-04-21T06:19:21;49.67;;;32.47;;
22024;SDS011;11176;51.448;6.650;2023-04-21T06:21:48;49.03;;;31.20;;
22024;SDS011;11176;51.448;6.650;2023-04-21T06:24:14;49.75;;;32.35;;
22024;SDS011;11176;51.448;6.650;2023-04-21T06:26:41;49.53;;;32.40;;
22024;SDS011;11176;51.448;6.650;2023-04-21T06:29:07;46.30;;;31.30;;
22024;SDS011;11176;51.448;6.650;2023-04-21T06:31:34;51.15;;;32.65;;
22024;SDS011;11176;51.448;6.650;2023-04-21T06:34:01;45.80;;;29.73;;
22024;SDS011;11176;51.448;6.650;2023-04-21T06:36:27;48.60;;;33.17;;
22024;SDS011;11176;51.448;6.650;2023-04-21T06:38:54;50.58;;;33.33;;
22024;SDS011;11176;51.448;6.650;2023-04-21T06:41:20;48.97;;;33.10;;
22024;SDS011;11176;51.448;6.650;2023-04-21T06:43:50;47.08;;;31.65;;
22024;SDS011;11176;51.448;6.650;2023-04-21T06:46:16;53.10;;;34.92;;
22024;SDS011;11176;51.448;6.650;2023-04-21T06:48:43;49.42;;;32.55;;
22024;SDS011;11176;51.448;6.650;2023-04-21T06:51:09;48.33;;;33.20;;
22024;SDS011;11176;51.448;6.650;2023-04-21T06:53:36;47.20;;;31.55;;
22024;SDS011;11176;51.448;6.650;2023-04-21T06:56:03;51.80;;;33.40;;
22024;SDS011;11176;51.448;6.650;2023-04-21T06:58:30;50.83;;;33.22;;
22024;SDS011;11176;51.448;6.650;2023-04-21T07:00:56;49.25;;;33.60;;
22024;SDS011;11176;51.448;6.650;2023-04-21T07:03:23;46.58;;;31.30;;
22024;SDS011;11176;51.448;6.650;2023-04-21T07:05:50;49.05;;;31.83;;
22024;SDS011;11176;51.448;6.650;2023-04-21T07:08:17;48.50;;;33.28;;
22024;SDS011;11176;51.448;6.650;2023-04-21T07:10:43;53.60;;;35.65;;
22024;SDS011;11176;51.448;6.650;2023-04-21T07:13:10;56.83;;;37.60;;
22024;SDS011;11176;51.448;6.650;2023-04-21T07:15:36;56.42;;;37.10;;
22024;SDS011;11176;51.448;6.650;2023-04-21T07:18:03;56.70;;;38.30;;
22024;SDS011;11176;51.448;6.650;2023-04-21T07:20:29;62.85;;;41.40;;
22024;SDS011;11176;51.448;6.650;2023-04-21T07:22:56;56.45;;;37.53;;
22024;SDS011;11176;51.448;6.650;2023-04-21T07:25:23;55.67;;;36.50;;
22024;SDS011;11176;51.448;6.650;2023-04-21T07:27:49;48.63;;;34.25;;
22024;SDS011;11176;51.448;6.650;2023-04-21T07:30:15;53.65;;;32.60;;
22024;SDS011;11176;51.448;6.650;2023-04-21T07:32:42;43.65;;;31.35;;
22024;SDS011;11176;51.448;6.650;2023-04-21T07:35:09;44.53;;;29.52;;
22024;SDS011;11176;51.448;6.650;2023-04-21T07:37:35;47.22;;;31.08;;
22024;SDS011;11176;51.448;6.650;2023-04-21T07:40:02;45.60;;;32.28;;
22024;SDS011;11176;51.448;6.650;2023-04-21T07:42:29;47.65;;;31.85;;
22024;SDS011;11176;51.448;6.650;2023-04-21T07:44:55;48.28;;;32.35;;
22024;SDS011;11176;51.448;6.650;2023-04-21T07:47:22;43.67;;;30.05;;
22024;SDS011;11176;51.448;6.650;2023-04-21T07:49:49;45.38;;;29.27;;
22024;SDS011;11176;51.448;6.650;2023-04-21T07:52:15;42.67;;;30.08;;
22024;SDS011;11176;51.448;6.650;2023-04-21T07:54:42;40.25;;;28.83;;
22024;SDS011;11176;51.448;6.650;2023-04-21T07:57:08;39.85;;;28.25;;
22024;SDS011;11176;51.448;6.650;2023-04-21T07:59:36;41.50;;;26.52;;
22024;SDS011;11176;51.448;6.650;2023-04-21T08:02:03;36.08;;;25.90;;
22024;SDS011;11176;51.448;6.650;2023-04-21T08:04:30;39.95;;;26.25;;
22024;SDS011;11176;51.448;6.650;2023-04-21T08:06:59;38.60;;;27.73;;
22024;SDS011;11176;51.448;6.650;2023-04-21T08:09:25;41.10;;;27.88;;
22024;SDS011;11176;51.448;6.650;2023-04-21T08:11:52;41.00;;;27.63;;
22024;SDS011;11176;51.448;6.650;2023-04-21T08:14:20;41.53;;;28.15;;
22024;SDS011;11176;51.448;6.650;2023-04-21T08:16:47;36.95;;;26.83;;
22024;SDS011;11176;51.448;6.650;2023-04-21T08:19:13;38.58;;;27.15;;
22024;SDS011;11176;51.448;6.650;2023-04-21T08:21:40;43.22;;;29.83;;
22024;SDS011;11176;51.448;6.650;2023-04-21T08:24:07;41.05;;;27.85;;
22024;SDS011;11176;51.448;6.650;2023-04-21T08:26:33;42.20;;;28.50;;
22024;SDS011;11176;51.448;6.650;2023-04-21T08:29:01;42.25;;;28.70;;
22024;SDS011;11176;51.448;6.650;2023-04-21T08:31:30;35.72;;;26.67;;
22024;SDS011;11176;51.448;6.650;2023-04-21T08:33:56;38.00;;;27.38;;
22024;SDS011;11176;51.448;6.650;2023-04-21T08:36:28;39.80;;;27.13;;
22024;SDS011;11176;51.448;6.650;2023-04-21T08:38:56;37.72;;;27.13;;
22024;SDS011;11176;51.448;6.650;2023-04-21T08:41:23;37.72;;;26.20;;
22024;SDS011;11176;51.448;6.650;2023-04-21T08:43:51;38.05;;;25.67;;
22024;SDS011;11176;51.448;6.650;2023-04-21T08:46:18;36.80;;;27.05;;
22024;SDS011;11176;51.448;6.650;2023-04-21T08:48:45;33.72;;;25.58;;
22024;SDS011;11176;51.448;6.650;2023-04-21T08:51:20;37.03;;;25.73;;
22024;SDS011;11176;51.448;6.650;2023-04-21T08:53:49;34.97;;;24.70;;
22024;SDS011;11176;51.448;6.650;2023-04-21T08:56:16;36.72;;;24.95;;
22024;SDS011;11176;51.448;6.650;2023-04-21T08:58:43;31.05;;;22.83;;
22024;SDS011;11176;51.448;6.650;2023-04-21T09:01:09;33.60;;;24.55;;
22024;SDS011;11176;51.448;6.650;2023-04-21T09:03:37;32.28;;;23.90;;
22024;SDS011;11176;51.448;6.650;2023-04-21T09:06:04;31.85;;;22.23;;
22024;SDS011;11176;51.448;6.650;2023-04-21T09:08:40;29.60;;;21.55;;
22024;SDS011;11176;51.448;6.650;2023-04-21T09:11:12;29.20;;;22.00;;
22024;SDS011;11176;51.448;6.650;2023-04-21T09:13:40;27.88;;;21.08;;
22024;SDS011;11176;51.448;6.650;2023-04-21T09:16:18;31.92;;;22.75;;
22024;SDS011;11176;51.448;6.650;2023-04-21T09:18:49;32.45;;;22.45;;
22024;SDS011;11176;51.448;6.650;2023-04-21T09:21:17;27.50;;;20.13;;
22024;SDS011;11176;51.448;6.650;2023-04-21T09:23:48;28.85;;;20.75;;
22024;SDS011;11176;51.448;6.650;2023-04-21T09:26:17;29.83;;;21.92;;
22024;SDS011;11176;51.448;6.650;2023-04-21T09:28:45;30.45;;;22.05;;
22024;SDS011;11176;51.448;6.650;2023-04-21T09:31:22;25.58;;;18.80;;
22024;SDS011;11176;51.448;6.650;2023-04-21T09:33:58;24.75;;;18.88;;
22024;SDS011;11176;51.448;6.650;2023-04-21T09:36:27;27.45;;;20.38;;
22024;SDS011;11176;51.448;6.650;2023-04-21T09:41:29;24.30;;;18.73;;
22024;SDS011;11176;51.448;6.650;2023-04-21T09:43:57;24.83;;;18.58;;
22024;SDS011;11176;51.448;6.650;2023-04-21T09:46:31;25.80;;;18.88;;
22024;SDS011;11176;51.448;6.650;2023-04-21T09:49:00;24.77;;;18.50;;
22024;SDS011;11176;51.448;6.650;2023-04-21T09:51:27;25.50;;;18.02;;
22024;SDS011;11176;51.448;6.650;2023-04-21T09:54:17;26.80;;;19.17;;
22024;SDS011;11176;51.448;6.650;2023-04-21T09:56:49;25.50;;;18.38;;
22024;SDS011;11176;51.448;6.650;2023-04-21T09:59:19;24.70;;;18.23;;
22024;SDS011;11176;51.448;6.650;2023-04-21T10:01:50;25.42;;;18.65;;
22024;SDS011;11176;51.448;6.650;2023-04-21T10:04:20;23.30;;;17.80;;
22024;SDS011;11176;51.448;6.650;2023-04-21T10:06:50;22.75;;;17.92;;
22024;SDS011;11176;51.448;6.650;2023-04-21T10:09:17;21.23;;;16.40;;
22024;SDS011;11176;51.448;6.650;2023-04-21T10:11:46;25.95;;;18.05;;
22024;SDS011;11176;51.448;6.650;2023-04-21T10:14:13;24.58;;;18.77;;
22024;SDS011;11176;51.448;6.650;2023-04-21T10:16:40;24.45;;;18.48;;
22024;SDS011;11176;51.448;6.650;2023-04-21T10:19:24;24.75;;;17.55;;
22024;SDS011;11176;51.448;6.650;2023-04-21T10:21:55;22.45;;;16.75;;
22024;SDS011;11176;51.448;6.650;2023-04-21T10:24:29;23.25;;;18.38;;
22024;SDS011;11176;51.448;6.650;2023-04-21T10:26:56;24.38;;;18.15;;
22024;SDS011;11176;51.448;6.650;2023-04-21T10:29:27;25.88;;;18.15;;
22024;SDS011;11176;51.448;6.650;2023-04-21T10:32:16;24.17;;;18.05;;
22024;SDS011;11176;51.448;6.650;2023-04-21T10:35:10;24.85;;;17.42;;
22024;SDS011;11176;51.448;6.650;2023-04-21T10:37:39;26.25;;;17.85;;
22024;SDS011;11176;51.448;6.650;2023-04-21T10:40:31;24.92;;;18.45;;
22024;SDS011;11176;51.448;6.650;2023-04-21T10:49:10;25.77;;;18.67;;
22024;SDS011;11176;51.448;6.650;2023-04-21T10:54:26;19.45;;;14.73;;
22024;SDS011;11176;51.448;6.650;2023-04-21T10:57:16;23.17;;;17.52;;
22024;SDS011;11176;51.448;6.650;2023-04-21T10:59:44;25.02;;;17.52;;
22024;SDS011;11176;51.448;6.650;2023-04-21T11:02:13;25.80;;;19.33;;
22024;SDS011;11176;51.448;6.650;2023-04-21T11:04:42;22.10;;;17.13;;
22024;SDS011;11176;51.448;6.650;2023-04-21T11:09:45;23.23;;;16.77;;
22024;SDS011;11176;51.448;6.650;2023-04-21T11:12:13;23.88;;;18.30;;
22024;SDS011;11176;51.448;6.650;2023-04-21T11:14:42;23.50;;;17.65;;
22024;SDS011;11176;51.448;6.650;2023-04-21T11:17:11;24.83;;;17.63;;
22024;SDS011;11176;51.448;6.650;2023-04-21T11:19:46;27.02;;;19.27;;
22024;SDS011;11176;51.448;6.650;2023-04-21T11:22:17;25.52;;;18.85;;
22024;SDS011;11176;51.448;6.650;2023-04-21T11:24:45;24.80;;;17.60;;
22024;SDS011;11176;51.448;6.650;2023-04-21T11:27:13;25.88;;;18.63;;
22024;SDS011;11176;51.448;6.650;2023-04-21T11:29:40;26.05;;;19.23;;
22024;SDS011;11176;51.448;6.650;2023-04-21T11:32:07;24.67;;;18.83;;
22024;SDS011;11176;51.448;6.650;2023-04-21T11:34:38;23.52;;;18.45;;
22024;SDS011;11176;51.448;6.650;2023-04-21T11:37:06;24.95;;;18.17;;
22024;SDS011;11176;51.448;6.650;2023-04-21T11:39:33;24.13;;;17.42;;
22024;SDS011;11176;51.448;6.650;2023-04-21T11:42:05;27.33;;;18.80;;
22024;SDS011;11176;51.448;6.650;2023-04-21T11:49:49;22.20;;;17.23;;
22024;SDS011;11176;51.448;6.650;2023-04-21T11:52:24;24.33;;;16.67;;
22024;SDS011;11176;51.448;6.650;2023-04-21T11:57:30;21.98;;;17.17;;
22024;SDS011;11176;51.448;6.650;2023-04-21T11:59:58;24.52;;;17.35;;
22024;SDS011;11176;51.448;6.650;2023-04-21T12:02:26;24.33;;;16.98;;
22024;SDS011;11176;51.448;6.650;2023-04-21T12:04:58;24.23;;;17.05;;
22024;SDS011;11176;51.448;6.650;2023-04-21T12:07:29;22.42;;;16.52;;
22024;SDS011;11176;51.448;6.650;2023-04-21T12:09:57;23.65;;;17.63;;
22024;SDS011;11176;51.448;6.650;2023-04-21T12:12:24;22.35;;;16.33;;
22024;SDS011;11176;51.448;6.650;2023-04-21T12:14:51;19.42;;;14.65;;
22024;SDS011;11176;51.448;6.650;2023-04-21T12:17:18;19.73;;;15.00;;
22024;SDS011;11176;51.448;6.650;2023-04-21T12:19:45;20.55;;;15.27;;
22024;SDS011;11176;51.448;6.650;2023-04-21T12:22:15;22.42;;;14.50;;
22024;SDS011;11176;51.448;6.650;2023-04-21T12:24:48;19.33;;;14.40;;
22024;SDS011;11176;51.448;6.650;2023-04-21T12:27:14;18.90;;;13.63;;
22024;SDS011;11176;51.448;6.650;2023-04-21T12:29:41;19.02;;;13.30;;
22024;SDS011;11176;51.448;6.650;2023-04-21T12:32:08;21.08;;;14.30;;
22024;SDS011;11176;51.448;6.650;2023-04-21T12:34:35;18.27;;;14.02;;
22024;SDS011;11176;51.448;6.650;2023-04-21T12:37:02;21.23;;;13.70;;
22024;SDS011;11176;51.448;6.650;2023-04-21T12:39:30;18.35;;;13.00;;
22024;SDS011;11176;51.448;6.650;2023-04-21T12:41:57;16.15;;;12.65;;
22024;SDS011;11176;51.448;6.650;2023-04-21T12:44:24;13.70;;;11.38;;
22024;SDS011;11176;51.448;6.650;2023-04-21T12:46:51;17.50;;;12.27;;
22024;SDS011;11176;51.448;6.650;2023-04-21T12:49:18;15.70;;;11.55;;
22024;SDS011;11176;51.448;6.650;2023-04-21T12:51:45;15.40;;;10.88;;
22024;SDS011;11176;51.448;6.650;2023-04-21T12:54:11;14.68;;;10.38;;
22024;SDS011;11176;51.448;6.650;2023-04-21T12:56:38;13.45;;;10.50;;
22024;SDS011;11176;51.448;6.650;2023-04-21T12:59:05;14.38;;;10.48;;
22024;SDS011;11176;51.448;6.650;2023-04-21T13:01:32;13.30;;;10.10;;
22024;SDS011;11176;51.448;6.650;2023-04-21T13:03:59;13.10;;;9.90;;
22024;SDS011;11176;51.448;6.650;2023-04-21T13:06:26;14.02;;;10.05;;
22024;SDS011;11176;51.448;6.650;2023-04-21T13:08:53;12.15;;;9.05;;
22024;SDS011;11176;51.448;6.650;2023-04-21T13:11:19;14.13;;;10.02;;
22024;SDS011;11176;51.448;6.650;2023-04-21T13:13:46;13.80;;;9.73;;
22024;SDS011;11176;51.448;6.650;2023-04-21T13:16:13;12.13;;;8.68;;
22024;SDS011;11176;51.448;6.650;2023-04-21T13:18:40;14.98;;;9.98;;
22024;SDS011;11176;51.448;6.650;2023-04-21T13:21:06;12.75;;;9.07;;
22024;SDS011;11176;51.448;6.650;2023-04-21T13:23:33;12.77;;;10.15;;
22024;SDS011;11176;51.448;6.650;2023-04-21T13:25:59;13.15;;;9.15;;
22024;SDS011;11176;51.448;6.650;2023-04-21T13:28:26;12.68;;;9.10;;
22024;SDS011;11176;51.448;6.650;2023-04-21T13:30:52;12.02;;;9.10;;
22024;SDS011;11176;51.448;6.650;2023-04-21T13:33:19;10.30;;;8.07;;
22024;SDS011;11176;51.448;6.650;2023-04-21T13:35:48;10.73;;;8.13;;
22024;SDS011;11176;51.448;6.650;2023-04-21T13:38:15;10.43;;;7.82;;
22024;SDS011;11176;51.448;6.650;2023-04-21T13:40:41;10.32;;;7.20;;
22024;SDS011;11176;51.448;6.650;2023-04-21T13:43:08;10.73;;;7.40;;
22024;SDS011;11176;51.448;6.650;2023-04-21T13:45:35;10.70;;;6.97;;
22024;SDS011;11176;51.448;6.650;2023-04-21T13:48:02;9.73;;;6.85;;
22024;SDS011;11176;51.448;6.650;2023-04-21T13:50:29;9.02;;;7.07;;
22024;SDS011;11176;51.448;6.650;2023-04-21T13:52:55;9.93;;;7.65;;
22024;SDS011;11176;51.448;6.650;2023-04-21T13:55:22;11.00;;;7.70;;
22024;SDS011;11176;51.448;6.650;2023-04-21T13:57:48;8.40;;;6.25;;
22024;SDS011;11176;51.448;6.650;2023-04-21T14:00:15;10.88;;;7.32;;
22024;SDS011;11176;51.448;6.650;2023-04-21T14:02:42;10.93;;;8.63;;
22024;SDS011;11176;51.448;6.650;2023-04-21T14:05:08;10.55;;;7.50;;
22024;SDS011;11176;51.448;6.650;2023-04-21T14:07:36;9.05;;;6.85;;
22024;SDS011;11176;51.448;6.650;2023-04-21T14:10:02;9.52;;;7.65;;
22024;SDS011;11176;51.448;6.650;2023-04-21T14:12:29;10.10;;;7.82;;
22024;SDS011;11176;51.448;6.650;2023-04-21T14:14:56;9.80;;;7.53;;
22024;SDS011;11176;51.448;6.650;2023-04-21T14:17:22;10.50;;;6.63;;
22024;SDS011;11176;51.448;6.650;2023-04-21T14:19:49;10.65;;;6.95;;
22024;SDS011;11176;51.448;6.650;2023-04-21T14:22:19;10.20;;;6.95;;
22024;SDS011;11176;51.448;6.650;2023-04-21T14:24:46;8.57;;;6.65;;
22024;SDS011;11176;51.448;6.650;2023-04-21T14:27:13;9.88;;;7.03;;
22024;SDS011;11176;51.448;6.650;2023-04-21T14:29:39;13.15;;;7.40;;
22024;SDS011;11176;51.448;6.650;2023-04-21T14:32:06;8.05;;;6.43;;
22024;SDS011;11176;51.448;6.650;2023-04-21T14:34:32;8.93;;;6.35;;
22024;SDS011;11176;51.448;6.650;2023-04-21T14:36:59;10.00;;;6.50;;
22024;SDS011;11176;51.448;6.650;2023-04-21T14:39:26;8.60;;;5.68;;
22024;SDS011;11176;51.448;6.650;2023-04-21T14:41:52;8.13;;;6.28;;
22024;SDS011;11176;51.448;6.650;2023-04-21T14:44:19;9.07;;;6.80;;
22024;SDS011;11176;51.448;6.650;2023-04-21T14:46:46;8.88;;;6.65;;
22024;SDS011;11176;51.448;6.650;2023-04-21T14:49:26;8.27;;;6.57;;